EWG187 EDDK-EGSS
Flight info
| Callsign | EWG187 |
|---|---|
| Flight time | 0h 55m |
| Altitude | 32000 |
| Route | NVO2R NVO Y868 SOGRI L608 SUMUM Y6 TOSVA |
| Aircraft | A320/M-SDE3FGHIRWY/LB1 |
Departure
| Time | 2026-05-05 17:59 |
|---|---|
| Airport | Cologne Bonn Airport (EDDK) |
Arrival
| Time | 2026-05-05 18:54 |
|---|---|
| Airport | London Stansted Airport (EGSS) |
| Time | Latitude | Longitude | Altitude | Speed | Heading |
|---|---|---|---|---|---|
| 2026-05-05 17:10 | 50.88193 | 7.11899 | 232 ft | 0 kts | 213° |
| 2026-05-05 17:45 | 50.88208 | 7.11915 | 233 ft | 4 kts | 209° |
| 2026-05-05 17:45 | 50.88232 | 7.11933 | 235 ft | 4 kts | 198° |
| 2026-05-05 17:45 | 50.88258 | 7.11942 | 235 ft | 4 kts | 171° |
| 2026-05-05 17:45 | 50.88275 | 7.11932 | 236 ft | 0 kts | 127° |
| 2026-05-05 17:49 | 50.88264 | 7.11954 | 232 ft | 8 kts | 127° |
| 2026-05-05 17:49 | 50.88228 | 7.12040 | 234 ft | 19 kts | 124° |
| 2026-05-05 17:50 | 50.88145 | 7.12225 | 232 ft | 19 kts | 126° |
| 2026-05-05 17:50 | 50.88073 | 7.12380 | 232 ft | 16 kts | 126° |
| 2026-05-05 17:50 | 50.88007 | 7.12490 | 232 ft | 12 kts | 127° |
| 2026-05-05 17:50 | 50.87982 | 7.12590 | 233 ft | 8 kts | 131° |
| 2026-05-05 17:51 | 50.87938 | 7.12620 | 234 ft | 9 kts | 170° |
| 2026-05-05 17:51 | 50.87840 | 7.12619 | 234 ft | 16 kts | 165° |
| 2026-05-05 17:51 | 50.87761 | 7.12714 | 232 ft | 14 kts | 136° |
| 2026-05-05 17:51 | 50.87653 | 7.12869 | 232 ft | 26 kts | 137° |
| 2026-05-05 17:52 | 50.87512 | 7.13074 | 233 ft | 29 kts | 137° |
| 2026-05-05 17:52 | 50.87346 | 7.13315 | 232 ft | 37 kts | 136° |
| 2026-05-05 17:52 | 50.87151 | 7.13596 | 238 ft | 37 kts | 137° |
| 2026-05-05 17:52 | 50.86973 | 7.13853 | 245 ft | 32 kts | 137° |
| 2026-05-05 17:53 | 50.86822 | 7.14072 | 255 ft | 28 kts | 137° |
| 2026-05-05 17:53 | 50.86675 | 7.14223 | 260 ft | 22 kts | 139° |
| 2026-05-05 17:53 | 50.86575 | 7.14366 | 262 ft | 17 kts | 136° |
| 2026-05-05 17:53 | 50.86493 | 7.14486 | 267 ft | 14 kts | 137° |
| 2026-05-05 17:54 | 50.86408 | 7.14608 | 272 ft | 35 kts | 137° |
| 2026-05-05 17:54 | 50.86223 | 7.14877 | 282 ft | 33 kts | 138° |
| 2026-05-05 17:54 | 50.86064 | 7.15106 | 292 ft | 30 kts | 137° |
| 2026-05-05 17:54 | 50.85905 | 7.15337 | 294 ft | 31 kts | 140° |
| 2026-05-05 17:55 | 50.85743 | 7.15571 | 300 ft | 32 kts | 137° |
| 2026-05-05 17:55 | 50.85573 | 7.15815 | 307 ft | 33 kts | 137° |
| 2026-05-05 17:55 | 50.85405 | 7.16062 | 308 ft | 33 kts | 138° |
| 2026-05-05 17:55 | 50.85341 | 7.16352 | 308 ft | 25 kts | 73° |
| 2026-05-05 17:56 | 50.85384 | 7.16448 | 308 ft | 0 kts | 45° |
| 2026-05-05 17:57 | 50.85413 | 7.16485 | 308 ft | 16 kts | 34° |
| 2026-05-05 17:58 | 50.85525 | 7.16520 | 308 ft | 17 kts | 5° |
| 2026-05-05 17:58 | 50.85597 | 7.16458 | 309 ft | 9 kts | 316° |
| 2026-05-05 17:58 | 50.85664 | 7.16363 | 308 ft | 27 kts | 319° |
| 2026-05-05 17:58 | 50.86091 | 7.15744 | 300 ft | 136 kts | 317° |
| 2026-05-05 17:59 | 50.86625 | 7.14954 | 636 ft | 166 kts | 316° |
| 2026-05-05 17:59 | 50.87511 | 7.13551 | 1494 ft | 195 kts | 316° |
| 2026-05-05 17:59 | 50.88525 | 7.11963 | 2580 ft | 207 kts | 319° |
| 2026-05-05 17:59 | 50.89613 | 7.10420 | 3461 ft | 214 kts | 320° |
| 2026-05-05 18:00 | 50.90603 | 7.08634 | 4317 ft | 220 kts | 300° |
| 2026-05-05 18:00 | 50.91069 | 7.06325 | 5186 ft | 223 kts | 274° |
| 2026-05-05 18:00 | 50.90871 | 7.03892 | 6078 ft | 226 kts | 251° |
| 2026-05-05 18:00 | 50.90356 | 7.01432 | 6667 ft | 246 kts | 250° |
| 2026-05-05 18:01 | 50.89798 | 6.98820 | 7542 ft | 254 kts | 250° |
| 2026-05-05 18:01 | 50.89226 | 6.96146 | 8554 ft | 258 kts | 250° |
| 2026-05-05 18:01 | 50.88644 | 6.93430 | 9587 ft | 262 kts | 250° |
| 2026-05-05 18:01 | 50.88054 | 6.90678 | 10518 ft | 266 kts | 250° |
| 2026-05-05 18:02 | 50.87444 | 6.87840 | 11274 ft | 282 kts | 250° |
| 2026-05-05 18:02 | 50.86773 | 6.84716 | 11817 ft | 307 kts | 249° |
| 2026-05-05 18:02 | 50.86075 | 6.81465 | 12434 ft | 326 kts | 250° |
| 2026-05-05 18:02 | 50.85338 | 6.78016 | 13324 ft | 334 kts | 250° |
| 2026-05-05 18:03 | 50.84588 | 6.74507 | 14199 ft | 339 kts | 250° |
| 2026-05-05 18:03 | 50.83828 | 6.70947 | 15047 ft | 344 kts | 250° |
| 2026-05-05 18:03 | 50.83057 | 6.67345 | 15890 ft | 348 kts | 250° |
| 2026-05-05 18:03 | 50.82440 | 6.63611 | 16715 ft | 354 kts | 259° |
| 2026-05-05 18:04 | 50.82305 | 6.59696 | 17552 ft | 360 kts | 270° |
| 2026-05-05 18:04 | 50.82371 | 6.55714 | 18355 ft | 364 kts | 270° |
| 2026-05-05 18:04 | 50.82432 | 6.51694 | 19066 ft | 368 kts | 269° |
| 2026-05-05 18:04 | 50.82485 | 6.47620 | 19767 ft | 372 kts | 269° |
| 2026-05-05 18:05 | 50.82535 | 6.43500 | 20484 ft | 377 kts | 269° |
| 2026-05-05 18:05 | 50.82581 | 6.39333 | 21211 ft | 381 kts | 269° |
| 2026-05-05 18:05 | 50.82625 | 6.35117 | 21940 ft | 386 kts | 269° |
| 2026-05-05 18:05 | 50.82668 | 6.30859 | 22677 ft | 390 kts | 269° |
| 2026-05-05 18:06 | 50.82711 | 6.26540 | 23377 ft | 394 kts | 269° |
| 2026-05-05 18:06 | 50.82741 | 6.23665 | 23776 ft | 397 kts | 269° |
| 2026-05-05 18:06 | 50.82802 | 6.17834 | 24553 ft | 402 kts | 269° |
| 2026-05-05 18:06 | 50.82845 | 6.13389 | 25129 ft | 406 kts | 269° |
| 2026-05-05 18:07 | 50.82884 | 6.08868 | 25691 ft | 410 kts | 269° |
| 2026-05-05 18:07 | 50.82920 | 6.04374 | 26231 ft | 414 kts | 269° |
| 2026-05-05 18:07 | 50.82947 | 5.99753 | 26769 ft | 417 kts | 268° |
| 2026-05-05 18:07 | 50.82906 | 5.95196 | 27284 ft | 421 kts | 266° |
| 2026-05-05 18:08 | 50.82809 | 5.90494 | 27801 ft | 424 kts | 265° |
| 2026-05-05 18:08 | 50.82684 | 5.85779 | 28026 ft | 435 kts | 265° |
| 2026-05-05 18:08 | 50.82549 | 5.80997 | 28165 ft | 446 kts | 265° |
| 2026-05-05 18:08 | 50.82412 | 5.76046 | 28307 ft | 456 kts | 265° |
| 2026-05-05 18:09 | 50.82280 | 5.70999 | 28445 ft | 464 kts | 265° |
| 2026-05-05 18:09 | 50.82156 | 5.65851 | 28588 ft | 471 kts | 265° |
| 2026-05-05 18:09 | 50.82040 | 5.60646 | 28730 ft | 476 kts | 266° |
| 2026-05-05 18:09 | 50.81927 | 5.55401 | 28901 ft | 479 kts | 266° |
| 2026-05-05 18:10 | 50.81814 | 5.50138 | 29158 ft | 479 kts | 266° |
| 2026-05-05 18:10 | 50.81694 | 5.44862 | 29454 ft | 479 kts | 265° |
| 2026-05-05 18:10 | 50.81569 | 5.39606 | 29755 ft | 478 kts | 265° |
| 2026-05-05 18:10 | 50.81439 | 5.34362 | 30052 ft | 477 kts | 265° |
| 2026-05-05 18:11 | 50.81304 | 5.29122 | 30326 ft | 476 kts | 265° |
| 2026-05-05 18:11 | 50.81167 | 5.23889 | 30614 ft | 475 kts | 265° |
| 2026-05-05 18:11 | 50.81029 | 5.18681 | 30895 ft | 474 kts | 265° |
| 2026-05-05 18:11 | 50.80886 | 5.13475 | 31185 ft | 473 kts | 264° |
| 2026-05-05 18:12 | 50.80790 | 5.08283 | 31476 ft | 473 kts | 268° |
| 2026-05-05 18:12 | 50.81093 | 5.03101 | 31757 ft | 476 kts | 277° |
| 2026-05-05 18:12 | 50.81867 | 4.98003 | 31864 ft | 478 kts | 284° |
| 2026-05-05 18:13 | 50.83811 | 4.87975 | 31883 ft | 477 kts | 284° |
| 2026-05-05 18:13 | 50.85723 | 4.77961 | 31885 ft | 465 kts | 284° |
| 2026-05-05 18:13 | 50.86631 | 4.73169 | 31889 ft | 444 kts | 284° |
| 2026-05-05 18:14 | 50.87496 | 4.68589 | 31893 ft | 425 kts | 284° |
| 2026-05-05 18:14 | 50.88321 | 4.64190 | 31896 ft | 412 kts | 283° |
| 2026-05-05 18:14 | 50.89125 | 4.59869 | 31893 ft | 407 kts | 283° |
| 2026-05-05 18:15 | 50.91129 | 4.51515 | 31893 ft | 408 kts | 297° |
| 2026-05-05 18:15 | 50.94086 | 4.43820 | 31891 ft | 409 kts | 299° |
| 2026-05-05 18:16 | 50.97044 | 4.36131 | 31891 ft | 408 kts | 299° |
| 2026-05-05 18:16 | 50.99985 | 4.28426 | 31889 ft | 407 kts | 298° |
| 2026-05-05 18:17 | 51.02916 | 4.20739 | 31887 ft | 407 kts | 298° |
| 2026-05-05 18:17 | 51.05841 | 4.13032 | 31888 ft | 407 kts | 298° |
| 2026-05-05 18:18 | 51.08758 | 4.05328 | 31884 ft | 406 kts | 298° |
| 2026-05-05 18:18 | 51.11671 | 3.97628 | 31883 ft | 406 kts | 298° |
| 2026-05-05 18:19 | 51.14578 | 3.89907 | 31882 ft | 406 kts | 298° |
| 2026-05-05 18:19 | 51.17478 | 3.82194 | 31881 ft | 406 kts | 298° |
| 2026-05-05 18:20 | 51.20376 | 3.74470 | 31879 ft | 406 kts | 298° |
| 2026-05-05 18:20 | 51.23262 | 3.66728 | 31883 ft | 406 kts | 298° |
| 2026-05-05 18:21 | 51.26145 | 3.58980 | 31890 ft | 406 kts | 298° |
| 2026-05-05 18:21 | 51.29018 | 3.51240 | 31897 ft | 405 kts | 298° |
| 2026-05-05 18:22 | 51.31877 | 3.43487 | 31905 ft | 405 kts | 298° |
| 2026-05-05 18:22 | 51.34691 | 3.35705 | 31909 ft | 403 kts | 293° |
| 2026-05-05 18:23 | 51.36735 | 3.27417 | 31916 ft | 400 kts | 287° |
| 2026-05-05 18:23 | 51.38704 | 3.19086 | 31922 ft | 400 kts | 287° |
| 2026-05-05 18:24 | 51.40675 | 3.10741 | 31919 ft | 400 kts | 287° |
| 2026-05-05 18:24 | 51.42643 | 3.02412 | 31923 ft | 400 kts | 287° |
| 2026-05-05 18:25 | 51.44606 | 2.94078 | 31927 ft | 400 kts | 287° |
| 2026-05-05 18:25 | 51.46557 | 2.85727 | 31925 ft | 399 kts | 287° |
| 2026-05-05 18:25 | 51.47539 | 2.81488 | 31928 ft | 414 kts | 287° |
| 2026-05-05 18:26 | 51.48562 | 2.77066 | 31928 ft | 429 kts | 287° |
| 2026-05-05 18:26 | 51.50681 | 2.67911 | 31927 ft | 442 kts | 287° |
| 2026-05-05 18:27 | 51.52823 | 2.58649 | 31932 ft | 443 kts | 287° |
| 2026-05-05 18:27 | 51.54956 | 2.49369 | 31932 ft | 443 kts | 287° |
| 2026-05-05 18:28 | 51.58134 | 2.35459 | 31937 ft | 442 kts | 287° |
| 2026-05-05 18:28 | 51.59181 | 2.30852 | 31819 ft | 432 kts | 287° |
| 2026-05-05 18:28 | 51.60206 | 2.26347 | 31189 ft | 425 kts | 287° |
| 2026-05-05 18:29 | 51.61215 | 2.21908 | 29921 ft | 423 kts | 287° |
| 2026-05-05 18:29 | 51.62223 | 2.17488 | 28760 ft | 416 kts | 289° |
| 2026-05-05 18:29 | 51.63550 | 2.13397 | 27718 ft | 411 kts | 303° |
| 2026-05-05 18:29 | 51.65417 | 2.09969 | 26705 ft | 406 kts | 317° |
| 2026-05-05 18:30 | 51.67705 | 2.07431 | 26170 ft | 391 kts | 330° |
| 2026-05-05 18:30 | 51.70066 | 2.05395 | 25987 ft | 382 kts | 330° |
| 2026-05-05 18:30 | 51.72401 | 2.03397 | 25924 ft | 379 kts | 330° |
| 2026-05-05 18:30 | 51.74734 | 2.01411 | 25944 ft | 380 kts | 330° |
| 2026-05-05 18:31 | 51.77076 | 1.99418 | 25935 ft | 379 kts | 330° |
| 2026-05-05 18:31 | 51.79409 | 1.97433 | 25941 ft | 379 kts | 330° |
| 2026-05-05 18:31 | 51.81751 | 1.95426 | 25950 ft | 389 kts | 330° |
| 2026-05-05 18:31 | 51.84197 | 1.93319 | 25958 ft | 408 kts | 330° |
| 2026-05-05 18:32 | 51.86759 | 1.91113 | 25869 ft | 425 kts | 330° |
| 2026-05-05 18:32 | 51.89213 | 1.88410 | 24894 ft | 429 kts | 316° |
| 2026-05-05 18:32 | 51.91106 | 1.84674 | 23657 ft | 433 kts | 300° |
| 2026-05-05 18:32 | 51.92542 | 1.80344 | 22108 ft | 441 kts | 297° |
| 2026-05-05 18:33 | 51.93978 | 1.75915 | 20521 ft | 449 kts | 297° |
| 2026-05-05 18:33 | 51.95443 | 1.71412 | 19230 ft | 452 kts | 297° |
| 2026-05-05 18:33 | 51.96916 | 1.66907 | 18500 ft | 452 kts | 298° |
| 2026-05-05 18:33 | 51.98395 | 1.62408 | 18189 ft | 452 kts | 298° |
| 2026-05-05 18:34 | 51.99871 | 1.57924 | 17971 ft | 451 kts | 298° |
| 2026-05-05 18:34 | 52.01343 | 1.53439 | 17961 ft | 450 kts | 298° |
| 2026-05-05 18:34 | 52.02807 | 1.48971 | 17647 ft | 444 kts | 298° |
| 2026-05-05 18:34 | 52.04238 | 1.44583 | 16618 ft | 437 kts | 297° |
| 2026-05-05 18:35 | 52.05644 | 1.40252 | 15660 ft | 430 kts | 297° |
| 2026-05-05 18:35 | 52.07030 | 1.35975 | 14757 ft | 424 kts | 297° |
| 2026-05-05 18:35 | 52.08388 | 1.31770 | 13890 ft | 417 kts | 297° |
| 2026-05-05 18:35 | 52.09720 | 1.27634 | 13253 ft | 405 kts | 297° |
| 2026-05-05 18:36 | 52.10821 | 1.23452 | 12335 ft | 404 kts | 285° |
| 2026-05-05 18:36 | 52.11187 | 1.18910 | 12040 ft | 407 kts | 271° |
| 2026-05-05 18:36 | 52.10886 | 1.14340 | 11792 ft | 408 kts | 259° |
| 2026-05-05 18:36 | 52.10254 | 1.09855 | 11139 ft | 405 kts | 257° |
| 2026-05-05 18:37 | 52.09613 | 1.05400 | 10736 ft | 404 kts | 258° |
| 2026-05-05 18:37 | 52.08970 | 1.00959 | 10483 ft | 403 kts | 257° |
| 2026-05-05 18:37 | 52.08328 | 0.96531 | 10335 ft | 403 kts | 258° |
| 2026-05-05 18:37 | 52.07684 | 0.92106 | 10269 ft | 403 kts | 258° |
| 2026-05-05 18:38 | 52.07255 | 0.89166 | 10247 ft | 402 kts | 257° |
| 2026-05-05 18:38 | 52.06388 | 0.83256 | 10253 ft | 400 kts | 257° |
| 2026-05-05 18:38 | 52.05962 | 0.80367 | 9786 ft | 394 kts | 257° |
| 2026-05-05 18:38 | 52.05329 | 0.76065 | 8914 ft | 383 kts | 258° |
| 2026-05-05 18:39 | 52.04739 | 0.72063 | 8296 ft | 348 kts | 258° |
| 2026-05-05 18:39 | 52.04201 | 0.68428 | 8001 ft | 313 kts | 258° |
| 2026-05-05 18:39 | 52.03575 | 0.64209 | 7946 ft | 267 kts | 258° |
| 2026-05-05 18:39 | 52.03157 | 0.61407 | 7950 ft | 249 kts | 258° |
| 2026-05-05 18:40 | 52.02888 | 0.59574 | 7952 ft | 246 kts | 260° |
| 2026-05-05 18:40 | 52.02722 | 0.56838 | 7962 ft | 244 kts | 270° |
| 2026-05-05 18:40 | 52.02689 | 0.54080 | 7965 ft | 244 kts | 271° |
| 2026-05-05 18:40 | 52.02670 | 0.51327 | 7968 ft | 244 kts | 271° |
| 2026-05-05 18:41 | 52.02654 | 0.48580 | 7962 ft | 243 kts | 271° |
| 2026-05-05 18:41 | 52.02640 | 0.45831 | 7961 ft | 244 kts | 271° |
| 2026-05-05 18:41 | 52.02624 | 0.43091 | 7834 ft | 241 kts | 271° |
| 2026-05-05 18:41 | 52.02606 | 0.40375 | 7454 ft | 240 kts | 271° |
| 2026-05-05 18:42 | 52.02588 | 0.37663 | 7101 ft | 239 kts | 271° |
| 2026-05-05 18:42 | 52.02568 | 0.34977 | 6738 ft | 238 kts | 271° |
| 2026-05-05 18:42 | 52.02546 | 0.32300 | 6398 ft | 236 kts | 271° |
| 2026-05-05 18:42 | 52.02520 | 0.29643 | 6067 ft | 235 kts | 271° |
| 2026-05-05 18:43 | 52.02494 | 0.26998 | 6010 ft | 235 kts | 271° |
| 2026-05-05 18:43 | 52.02466 | 0.24337 | 6009 ft | 236 kts | 271° |
| 2026-05-05 18:43 | 52.02437 | 0.21672 | 6003 ft | 236 kts | 271° |
| 2026-05-05 18:43 | 52.02395 | 0.19011 | 6003 ft | 236 kts | 268° |
| 2026-05-05 18:44 | 52.02007 | 0.16436 | 6007 ft | 233 kts | 242° |
| 2026-05-05 18:44 | 52.00945 | 0.14579 | 5997 ft | 219 kts | 219° |
| 2026-05-05 18:44 | 51.99752 | 0.13174 | 5960 ft | 207 kts | 217° |
| 2026-05-05 18:44 | 51.98568 | 0.11847 | 5690 ft | 206 kts | 216° |
| 2026-05-05 18:45 | 51.97387 | 0.10530 | 5415 ft | 206 kts | 216° |
| 2026-05-05 18:45 | 51.96208 | 0.09214 | 5139 ft | 206 kts | 216° |
| 2026-05-05 18:45 | 51.95031 | 0.07896 | 4867 ft | 205 kts | 216° |
| 2026-05-05 18:45 | 51.93857 | 0.06581 | 4598 ft | 205 kts | 216° |
| 2026-05-05 18:46 | 51.92690 | 0.05268 | 4308 ft | 205 kts | 216° |
| 2026-05-05 18:46 | 51.91525 | 0.03943 | 4030 ft | 205 kts | 216° |
| 2026-05-05 18:46 | 51.90264 | 0.02879 | 3752 ft | 204 kts | 199° |
| 2026-05-05 18:46 | 51.88917 | 0.02156 | 3473 ft | 204 kts | 197° |
| 2026-05-05 18:47 | 51.87559 | 0.01477 | 3223 ft | 203 kts | 196° |
| 2026-05-05 18:47 | 51.86215 | 0.00801 | 3032 ft | 201 kts | 196° |
| 2026-05-05 18:47 | 51.84872 | 0.00125 | 2996 ft | 202 kts | 196° |
| 2026-05-05 18:47 | 51.83528 | -0.00554 | 3007 ft | 203 kts | 196° |
| 2026-05-05 18:48 | 51.82177 | -0.01234 | 3003 ft | 203 kts | 196° |
| 2026-05-05 18:48 | 51.80827 | -0.01909 | 3002 ft | 203 kts | 197° |
| 2026-05-05 18:48 | 51.79469 | -0.02388 | 3175 ft | 199 kts | 175° |
| 2026-05-05 18:48 | 51.78179 | -0.01638 | 3454 ft | 208 kts | 140° |
| 2026-05-05 18:49 | 51.77138 | -0.00169 | 3685 ft | 185 kts | 132° |
| 2026-05-05 18:49 | 51.76276 | 0.01258 | 3895 ft | 174 kts | 122° |
| 2026-05-05 18:49 | 51.75944 | 0.03046 | 3991 ft | 166 kts | 83° |
| 2026-05-05 18:49 | 51.76175 | 0.04860 | 3928 ft | 166 kts | 59° |
| 2026-05-05 18:50 | 51.76973 | 0.06168 | 3600 ft | 166 kts | 36° |
| 2026-05-05 18:50 | 51.77822 | 0.07437 | 3200 ft | 162 kts | 43° |
| 2026-05-05 18:50 | 51.78609 | 0.08660 | 2894 ft | 151 kts | 43° |
| 2026-05-05 18:50 | 51.79345 | 0.09776 | 2674 ft | 141 kts | 43° |
| 2026-05-05 18:51 | 51.80041 | 0.10823 | 2483 ft | 133 kts | 42° |
| 2026-05-05 18:51 | 51.80708 | 0.11823 | 2302 ft | 130 kts | 43° |
| 2026-05-05 18:51 | 51.81363 | 0.12800 | 2127 ft | 127 kts | 43° |
| 2026-05-05 18:51 | 51.81984 | 0.13728 | 1960 ft | 118 kts | 43° |
| 2026-05-05 18:52 | 51.82578 | 0.14617 | 1803 ft | 115 kts | 43° |
| 2026-05-05 18:52 | 51.83166 | 0.15495 | 1648 ft | 115 kts | 43° |
| 2026-05-05 18:52 | 51.83752 | 0.16371 | 1486 ft | 114 kts | 44° |
| 2026-05-05 18:52 | 51.84338 | 0.17248 | 1333 ft | 115 kts | 43° |
| 2026-05-05 18:53 | 51.84928 | 0.18130 | 1147 ft | 116 kts | 44° |
| 2026-05-05 18:53 | 51.85519 | 0.19014 | 988 ft | 116 kts | 44° |
| 2026-05-05 18:53 | 51.86112 | 0.19901 | 824 ft | 116 kts | 43° |
| 2026-05-05 18:53 | 51.86703 | 0.20787 | 664 ft | 116 kts | 43° |
| 2026-05-05 18:54 | 51.87299 | 0.21690 | 505 ft | 115 kts | 41° |
| 2026-05-05 18:54 | 51.87870 | 0.22523 | 334 ft | 102 kts | 40° |
| 2026-05-05 18:54 | 51.88271 | 0.23111 | 334 ft | 53 kts | 41° |
| 2026-05-05 18:54 | 51.88492 | 0.23449 | 337 ft | 41 kts | 43° |
| 2026-05-05 18:55 | 51.88692 | 0.23755 | 336 ft | 39 kts | 44° |
| 2026-05-05 18:55 | 51.88834 | 0.24015 | 336 ft | 29 kts | 57° |
| 2026-05-05 18:55 | 51.88896 | 0.24321 | 345 ft | 28 kts | 75° |
| 2026-05-05 18:55 | 51.88920 | 0.24460 | 346 ft | 0 kts | 82° |
| 2026-05-05 18:56 | 51.88879 | 0.24552 | 347 ft | 23 kts | 144° |
| 2026-05-05 18:56 | 51.88826 | 0.24745 | 349 ft | 19 kts | 63° |
| 2026-05-05 18:56 | 51.88922 | 0.24883 | 348 ft | 20 kts | 44° |
| 2026-05-05 18:56 | 51.89021 | 0.25034 | 343 ft | 9 kts | 42° |
| 2026-05-05 18:57 | 51.89070 | 0.25112 | 346 ft | 11 kts | 45° |
| 2026-05-05 18:57 | 51.89130 | 0.25204 | 344 ft | 8 kts | 43° |
| 2026-05-05 18:57 | 51.89131 | 0.25206 | 344 ft | 0 kts | 43° |